Time;durP1;ratioP1;P1;durP2;ratioP2;P2;SDS_P1;SDS_P2;PMS_P1;PMS_P2;Temp;Humidity;BMP_temperature;BMP_pressure;BME280_temperature;BME280_humidity;BME280_pressure;Samples;Min_cycle;Max_cycle;Signal;HPM_P1;HPM_P2
2021/01/20 00:00:32;;;;;;;109.73;77.27;;;7.00;86.00;;;;;;5042702;28;20144;-53
2021/01/20 00:02:58;;;;;;;119.17;81.17;;;7.00;86.00;;;;;;5037183;28;20040;-57
2021/01/20 00:05:24;;;;;;;121.17;85.17;;;6.90;86.20;;;;;;5032697;28;20073;-57
2021/01/20 00:07:50;;;;;;;129.83;86.03;;;6.90;86.20;;;;;;5046462;28;20581;-55
2021/01/20 00:10:16;;;;;;;117.77;81.47;;;6.90;86.50;;;;;;5046445;28;20037;-57
2021/01/20 00:12:48;;;;;;;116.07;83.47;;;6.70;86.50;;;;;;5052116;28;20044;-57
2021/01/20 00:15:21;;;;;;;122.77;84.97;;;6.80;86.40;;;;;;5045147;28;20556;-57
2021/01/20 00:17:48;;;;;;;123.47;85.13;;;6.70;86.20;;;;;;5041091;28;20047;-57
2021/01/20 00:20:13;;;;;;;121.47;82.10;;;6.70;86.40;;;;;;5039971;28;20037;-57
2021/01/20 00:22:41;;;;;;;128.70;86.20;;;6.70;86.60;;;;;;5040722;28;20029;-58
2021/01/20 00:25:08;;;;;;;127.23;84.63;;;6.60;86.30;;;;;;5037039;28;20036;-57
2021/01/20 00:27:34;;;;;;;118.67;83.10;;;6.50;86.10;;;;;;5037522;28;20053;-57
2021/01/20 00:29:59;;;;;;;122.53;82.07;;;6.60;86.30;;;;;;5041230;28;20033;-56
2021/01/20 00:32:25;;;;;;;125.47;84.43;;;6.50;86.10;;;;;;5043790;28;20037;-55
2021/01/20 00:34:50;;;;;;;125.27;83.53;;;6.40;86.30;;;;;;5053311;28;20130;-57
2021/01/20 00:37:16;;;;;;;122.80;86.03;;;6.40;86.30;;;;;;5040293;28;20045;-56
2021/01/20 00:39:42;;;;;;;125.93;81.60;;;6.40;86.50;;;;;;5045273;28;20041;-55
2021/01/20 00:42:07;;;;;;;121.57;82.03;;;6.40;86.40;;;;;;5046657;28;20040;-56
2021/01/20 00:44:33;;;;;;;121.70;81.97;;;6.40;86.90;;;;;;5055469;28;20033;-56
2021/01/20 00:46:59;;;;;;;123.83;80.23;;;6.40;86.40;;;;;;5038004;28;20050;-56
2021/01/20 00:49:25;;;;;;;120.37;83.87;;;6.40;86.00;;;;;;5035866;28;20049;-56
2021/01/20 00:51:50;;;;;;;121.70;80.40;;;6.40;86.60;;;;;;5051001;28;20041;-56
2021/01/20 00:54:16;;;;;;;117.57;77.73;;;6.40;86.80;;;;;;5043882;28;20049;-57
2021/01/20 00:56:41;;;;;;;119.13;80.67;;;6.50;86.20;;;;;;5061395;28;20398;-55
2021/01/20 00:59:07;;;;;;;120.97;80.10;;;6.30;86.20;;;;;;5044609;28;20036;-56
2021/01/20 01:01:34;;;;;;;116.43;79.50;;;6.40;86.60;;;;;;5045965;28;20041;-55
2021/01/20 01:04:00;;;;;;;123.67;83.27;;;6.30;86.60;;;;;;5040113;28;20033;-55
2021/01/20 01:06:25;;;;;;;121.23;81.10;;;6.40;86.40;;;;;;5036409;28;20102;-54
2021/01/20 01:08:51;;;;;;;127.10;84.60;;;6.30;86.20;;;;;;5039823;28;20060;-55
2021/01/20 01:11:16;;;;;;;119.80;81.20;;;6.30;87.00;;;;;;5049499;28;20182;-56
2021/01/20 01:13:42;;;;;;;123.70;82.43;;;6.30;86.70;;;;;;5038821;28;20036;-57
2021/01/20 01:16:08;;;;;;;123.30;82.40;;;6.30;86.80;;;;;;5040496;28;20037;-55
2021/01/20 01:18:33;;;;;;;116.93;79.97;;;6.40;87.10;;;;;;5049554;28;20044;-54
2021/01/20 01:20:59;;;;;;;125.00;82.50;;;6.40;86.60;;;;;;5042128;28;20040;-55
2021/01/20 01:23:24;;;;;;;121.57;79.17;;;6.30;86.80;;;;;;5040424;28;20040;-56
2021/01/20 01:25:52;;;;;;;120.83;80.53;;;6.20;86.70;;;;;;5041112;28;20064;-52
2021/01/20 01:28:18;;;;;;;116.17;78.80;;;6.30;86.90;;;;;;5042472;28;20045;-55
2021/01/20 01:30:44;;;;;;;124.40;79.10;;;6.30;86.80;;;;;;5035973;28;20036;-52
2021/01/20 01:33:09;;;;;;;118.03;78.83;;;6.30;86.70;;;;;;5032782;28;20527;-57
2021/01/20 01:35:35;;;;;;;118.63;78.53;;;6.20;87.50;;;;;;5041584;28;20040;-56
2021/01/20 01:38:01;;;;;;;116.60;77.20;;;6.20;87.10;;;;;;5045656;28;20649;-57
2021/01/20 01:40:27;;;;;;;109.80;73.67;;;6.20;86.50;;;;;;5037596;28;20049;-55
2021/01/20 01:42:52;;;;;;;114.57;75.10;;;6.20;86.60;;;;;;5047042;28;20036;-56
2021/01/20 01:45:18;;;;;;;107.40;72.40;;;6.20;86.60;;;;;;5044067;28;20025;-55
2021/01/20 01:47:44;;;;;;;120.23;76.50;;;6.20;85.70;;;;;;5048941;28;20039;-54
2021/01/20 01:50:12;;;;;;;115.47;74.17;;;6.10;86.50;;;;;;5039706;28;20044;-57
2021/01/20 01:52:38;;;;;;;117.13;73.93;;;6.10;86.60;;;;;;5047534;28;20037;-55
2021/01/20 01:55:06;;;;;;;108.23;71.77;;;6.00;86.70;;;;;;5038613;28;20029;-56
2021/01/20 01:57:32;;;;;;;112.40;72.60;;;5.90;86.40;;;;;;5031155;28;20048;-56
2021/01/20 01:59:57;;;;;;;115.10;72.13;;;6.00;86.50;;;;;;5042874;28;20119;-55
2021/01/20 02:02:23;;;;;;;111.00;71.13;;;6.00;86.10;;;;;;5039423;28;20072;-56
2021/01/20 02:04:49;;;;;;;111.33;70.33;;;6.10;86.40;;;;;;5047494;28;20053;-55
2021/01/20 02:07:15;;;;;;;109.30;69.27;;;6.00;86.30;;;;;;5034632;28;20061;-55
2021/01/20 02:09:41;;;;;;;107.67;69.17;;;6.00;86.40;;;;;;5038260;28;20036;-57
2021/01/20 02:12:13;;;;;;;106.37;64.67;;;6.00;86.90;;;;;;5039831;28;20041;-57
2021/01/20 02:14:47;;;;;;;104.97;65.50;;;6.00;86.80;;;;;;5051637;28;20056;-56
2021/01/20 02:17:29;;;;;;;101.13;64.38;;;6.00;86.40;;;;;;5034509;28;20047;-55
2021/01/20 02:19:54;;;;;;;101.43;67.10;;;5.90;86.80;;;;;;5048260;28;20071;-55
2021/01/20 02:22:27;;;;;;;104.37;66.73;;;5.90;86.30;;;;;;5043318;28;20577;-55
2021/01/20 02:25:10;;;;;;;105.37;65.67;;;5.90;86.40;;;;;;5038791;28;20112;-56
2021/01/20 02:27:51;;;;;;;102.93;65.90;;;6.00;86.40;;;;;;5033825;28;20059;-56
2021/01/20 02:30:19;;;;;;;106.23;68.30;;;5.90;86.90;;;;;;5023350;28;20076;-54
2021/01/20 02:32:47;;;;;;;102.27;65.93;;;5.90;86.50;;;;;;5038979;28;20033;-57
2021/01/20 02:35:14;;;;;;;105.10;67.53;;;5.80;86.60;;;;;;5041774;28;20032;-57
2021/01/20 02:37:40;;;;;;;105.53;68.80;;;5.80;86.50;;;;;;5031292;28;20045;-57
2021/01/20 02:40:06;;;;;;;106.00;69.90;;;5.90;86.50;;;;;;5048333;28;20038;-56
2021/01/20 02:42:32;;;;;;;106.63;71.53;;;5.90;86.50;;;;;;5035728;28;20142;-54
2021/01/20 02:44:58;;;;;;;102.37;69.13;;;5.90;86.60;;;;;;5043062;28;20041;-56
2021/01/20 02:47:24;;;;;;;102.97;67.43;;;5.80;86.00;;;;;;5045361;28;20044;-56
2021/01/20 02:49:51;;;;;;;104.70;68.03;;;5.90;86.20;;;;;;5038930;28;20041;-55
2021/01/20 02:52:43;;;;;;;97.90;66.07;;;5.90;86.20;;;;;;5041575;28;20041;-57
2021/01/20 02:55:12;;;;;;;104.17;69.03;;;5.90;85.20;;;;;;5034485;28;20525;-56
2021/01/20 02:57:39;;;;;;;102.90;70.37;;;5.90;86.10;;;;;;5043930;28;20072;-57
2021/01/20 03:00:06;;;;;;;98.70;66.73;;;5.90;85.80;;;;;;5036587;28;20048;-56
2021/01/20 03:02:35;;;;;;;100.47;66.60;;;5.90;85.80;;;;;;5045531;28;20056;-56
2021/01/20 03:05:02;;;;;;;101.63;68.40;;;6.00;86.20;;;;;;5028434;28;20041;-56
2021/01/20 03:07:30;;;;;;;97.57;67.20;;;6.00;85.60;;;;;;5032995;28;20041;-54
2021/01/20 03:09:57;;;;;;;104.73;66.83;;;6.00;85.00;;;;;;5045248;28;20120;-56
2021/01/20 03:12:28;;;;;;;95.03;66.87;;;6.00;85.10;;;;;;5042934;28;20044;-54
2021/01/20 03:14:57;;;;;;;95.80;63.43;;;6.10;85.30;;;;;;5046032;28;20029;-55
2021/01/20 03:17:23;;;;;;;90.73;60.93;;;6.00;84.50;;;;;;5033693;28;20094;-56
2021/01/20 03:19:49;;;;;;;92.83;61.77;;;6.00;83.80;;;;;;5033074;28;20486;-56
2021/01/20 03:22:15;;;;;;;90.37;62.77;;;6.00;84.70;;;;;;5049753;28;20048;-54
2021/01/20 03:24:40;;;;;;;91.83;61.43;;;6.10;84.80;;;;;;5039622;28;20044;-57
2021/01/20 03:27:06;;;;;;;93.60;62.30;;;6.00;84.10;;;;;;5053319;28;20032;-57
2021/01/20 03:29:32;;;;;;;91.97;62.13;;;6.00;84.40;;;;;;5043627;28;20464;-54
2021/01/20 03:31:57;;;;;;;93.20;62.20;;;6.00;84.10;;;;;;5049613;28;20148;-56
2021/01/20 03:34:23;;;;;;;93.70;63.57;;;5.90;83.80;;;;;;5040604;28;20046;-55
2021/01/20 03:36:49;;;;;;;95.67;64.60;;;6.00;84.30;;;;;;5051545;28;20053;-56
2021/01/20 03:39:14;;;;;;;98.63;67.13;;;6.00;84.30;;;;;;5049357;28;20526;-57
2021/01/20 03:41:40;;;;;;;92.30;63.83;;;6.00;84.80;;;;;;5038461;28;20053;-57
2021/01/20 03:44:06;;;;;;;89.40;61.33;;;5.90;84.40;;;;;;5049053;28;20037;-56
2021/01/20 03:46:31;;;;;;;94.90;62.00;;;6.00;84.60;;;;;;5036735;28;20038;-57
2021/01/20 03:48:57;;;;;;;93.77;61.83;;;6.00;84.80;;;;;;5047764;28;22075;-57
2021/01/20 03:51:23;;;;;;;91.60;62.77;;;6.00;84.50;;;;;;5044415;28;20044;-57
2021/01/20 03:53:48;;;;;;;92.07;63.90;;;6.00;84.30;;;;;;5047656;28;20044;-57
2021/01/20 03:56:14;;;;;;;95.80;61.60;;;6.00;84.40;;;;;;5037383;28;20051;-55
2021/01/20 03:58:39;;;;;;;93.03;63.03;;;6.00;83.80;;;;;;5046195;28;20437;-57
2021/01/20 04:01:05;;;;;;;93.80;62.70;;;6.10;84.20;;;;;;5042172;28;20064;-55
2021/01/20 04:03:31;;;;;;;90.17;62.30;;;6.10;84.50;;;;;;5043858;28;20030;-56
2021/01/20 04:05:56;;;;;;;97.40;64.57;;;6.10;83.90;;;;;;5032906;28;20426;-55
2021/01/20 04:08:22;;;;;;;91.03;60.97;;;6.00;83.70;;;;;;5052439;28;20045;-56
2021/01/20 04:10:47;;;;;;;93.10;61.43;;;6.00;83.80;;;;;;5044513;28;20033;-53
2021/01/20 04:13:13;;;;;;;86.43;58.97;;;6.10;83.90;;;;;;5046651;28;20048;-56
2021/01/20 04:15:39;;;;;;;88.07;59.13;;;6.00;83.30;;;;;;5039576;28;20037;-56
2021/01/20 04:18:04;;;;;;;88.33;59.93;;;6.00;83.40;;;;;;5042203;28;20417;-56
2021/01/20 04:20:30;;;;;;;85.60;58.20;;;6.00;83.50;;;;;;5033871;28;20395;-55
2021/01/20 04:22:56;;;;;;;86.07;59.23;;;6.00;83.70;;;;;;5038248;28;20041;-57
2021/01/20 04:25:22;;;;;;;86.47;58.63;;;6.00;83.30;;;;;;5046383;28;20048;-51
2021/01/20 04:27:47;;;;;;;88.23;59.50;;;6.10;83.70;;;;;;5041116;28;20586;-56
2021/01/20 04:30:13;;;;;;;84.00;56.13;;;6.10;83.30;;;;;;5048433;28;20029;-57
2021/01/20 04:32:39;;;;;;;80.80;53.60;;;6.10;82.70;;;;;;5045097;28;20120;-57
2021/01/20 04:35:05;;;;;;;79.77;54.00;;;6.10;82.50;;;;;;5038699;28;20502;-56
2021/01/20 04:37:31;;;;;;;76.60;51.87;;;6.10;82.00;;;;;;5029078;28;20492;-56
2021/01/20 04:39:56;;;;;;;68.87;47.40;;;6.10;81.50;;;;;;5043862;28;20035;-57
2021/01/20 04:42:22;;;;;;;66.87;47.33;;;6.20;81.60;;;;;;5045253;28;20043;-55
2021/01/20 04:44:48;;;;;;;78.67;54.10;;;6.20;81.50;;;;;;5047886;28;20040;-56
2021/01/20 04:47:15;;;;;;;82.10;57.20;;;6.10;81.80;;;;;;5037476;28;20072;-55
2021/01/20 04:49:45;;;;;;;81.43;55.20;;;6.10;82.20;;;;;;5048013;28;20068;-55
2021/01/20 04:52:16;;;;;;;79.97;53.90;;;6.10;82.10;;;;;;5045324;28;20501;-56
2021/01/20 04:54:44;;;;;;;74.03;52.10;;;6.20;81.60;;;;;;5034953;28;20045;-53
2021/01/20 04:57:12;;;;;;;72.93;51.37;;;6.20;81.50;;;;;;5041764;28;20060;-57
2021/01/20 04:59:42;;;;;;;78.17;52.23;;;6.20;81.30;;;;;;5038619;28;20064;-57
2021/01/20 05:02:12;;;;;;;81.00;55.90;;;6.20;81.80;;;;;;5037277;28;20426;-59
2021/01/20 05:04:41;;;;;;;78.90;55.43;;;6.30;82.10;;;;;;5041506;28;20116;-56
2021/01/20 05:07:07;;;;;;;85.67;58.40;;;6.20;82.40;;;;;;5045543;28;20044;-57
2021/01/20 05:09:33;;;;;;;91.63;59.37;;;6.20;82.80;;;;;;5038237;28;20091;-57
2021/01/20 05:11:59;;;;;;;90.23;60.90;;;6.10;83.80;;;;;;5047536;28;20045;-57
2021/01/20 05:14:25;;;;;;;92.57;60.97;;;6.10;84.00;;;;;;5034927;28;20108;-54
2021/01/20 05:16:53;;;;;;;92.10;60.17;;;6.00;84.40;;;;;;5043232;28;20670;-54
2021/01/20 05:19:40;;;;;;;90.90;60.90;;;6.00;84.50;;;;;;5043196;28;20533;-53
2021/01/20 05:22:07;;;;;;;96.30;61.90;;;6.00;84.60;;;;;;5043569;28;20043;-54
2021/01/20 05:24:37;;;;;;;90.53;59.87;;;6.10;84.70;;;;;;5040127;28;20140;-54
2021/01/20 05:27:05;;;;;;;97.13;62.13;;;6.00;84.80;;;;;;5041099;28;20045;-58
2021/01/20 05:29:31;;;;;;;97.90;61.73;;;5.90;85.10;;;;;;5038500;28;20035;-57
2021/01/20 05:31:57;;;;;;;97.57;62.20;;;6.00;85.00;;;;;;5035821;28;20479;-55
2021/01/20 05:34:32;;;;;;;97.83;62.87;;;6.00;85.20;;;;;;5037590;28;20029;-57
2021/01/20 05:37:11;;;;;;;96.13;61.33;;;6.00;85.50;;;;;;5037047;28;20045;-56
2021/01/20 05:39:40;;;;;;;99.07;63.33;;;5.90;85.70;;;;;;5031816;28;20053;-55
2021/01/20 05:42:06;;;;;;;104.57;63.70;;;5.80;85.70;;;;;;5041294;28;20049;-56
2021/01/20 05:44:32;;;;;;;99.03;63.27;;;5.70;85.80;;;;;;5037078;28;20038;-56
2021/01/20 05:46:58;;;;;;;101.53;64.17;;;5.70;86.00;;;;;;5041748;28;20030;-56
2021/01/20 05:49:26;;;;;;;102.80;66.10;;;5.80;85.80;;;;;;5042115;28;20082;-56
2021/01/20 05:51:52;;;;;;;108.80;65.90;;;5.70;86.10;;;;;;5030831;28;20037;-55
2021/01/20 05:54:38;;;;;;;104.80;65.87;;;5.70;86.30;;;;;;5038692;28;20041;-54
2021/01/20 05:57:19;;;;;;;;;;;5.80;85.80;;;;;;5032600;28;20514;-55
2021/01/20 05:59:49;;;;;;;109.17;65.30;;;5.60;86.20;;;;;;5021404;28;19928;-55
2021/01/20 06:02:17;;;;;;;114.50;68.17;;;5.60;86.20;;;;;;5020971;28;20038;-55
2021/01/20 06:04:43;;;;;;;110.63;68.57;;;5.70;86.10;;;;;;5030521;28;20403;-56
2021/01/20 06:07:11;;;;;;;110.53;68.83;;;5.70;85.90;;;;;;5036213;28;20049;-57
2021/01/20 06:09:38;;;;;;;110.27;68.00;;;5.70;85.70;;;;;;5037708;28;20044;-53
2021/01/20 06:12:05;;;;;;;115.37;70.47;;;5.70;85.80;;;;;;5038527;28;20040;-56
2021/01/20 06:14:31;;;;;;;111.70;70.53;;;5.70;85.80;;;;;;5045535;28;20487;-55
2021/01/20 06:17:23;;;;;;;110.93;68.33;;;5.70;85.80;;;;;;5041309;28;20051;-55
2021/01/20 06:19:57;;;;;;;106.67;66.73;;;5.80;85.80;;;;;;5023690;28;20049;-54
2021/01/20 06:22:26;;;;;;;108.68;66.10;;;5.80;85.50;;;;;;5038141;28;20044;-56
2021/01/20 06:25:02;;;;;;;109.47;67.70;;;5.80;85.50;;;;;;5047676;28;20132;-52
2021/01/20 06:27:41;;;;;;;116.43;70.33;;;5.80;85.30;;;;;;5037000;28;20112;-55
2021/01/20 06:30:20;;;;;;;115.07;70.00;;;5.80;86.00;;;;;;5042999;28;20083;-52
2021/01/20 06:32:48;;;;;;;114.80;71.87;;;5.80;85.80;;;;;;5010901;28;20079;-58
2021/01/20 06:35:17;;;;;;;121.73;74.37;;;5.80;85.70;;;;;;5048311;28;20064;-55
2021/01/20 06:37:46;;;;;;;122.33;73.93;;;5.70;86.40;;;;;;5039552;28;20079;-56
2021/01/20 06:40:20;;;;;;;124.47;73.43;;;5.70;86.40;;;;;;5042645;28;20039;-53
2021/01/20 06:42:51;;;;;;;131.10;75.97;;;5.70;86.90;;;;;;5038520;28;20064;-58
2021/01/20 06:45:19;;;;;;;132.63;77.67;;;5.60;87.70;;;;;;5042110;28;20055;-53
2021/01/20 06:47:59;;;;;;;134.33;81.27;;;5.60;88.30;;;;;;5030062;28;20056;-57
2021/01/20 06:51:06;;;;;;;129.43;78.43;;;5.60;89.60;;;;;;5041463;28;20071;-56
2021/01/20 06:53:31;;;;;;;125.43;79.33;;;5.60;89.50;;;;;;5004396;28;20053;-53
2021/01/20 06:55:57;;;;;;;133.87;79.27;;;5.60;88.90;;;;;;5036552;28;20033;-58
2021/01/20 06:58:26;;;;;;;136.73;81.13;;;5.60;89.30;;;;;;5032931;28;20046;-56
2021/01/20 07:01:01;;;;;;;148.23;88.10;;;5.60;90.50;;;;;;5041223;28;20566;-54
2021/01/20 07:03:44;;;;;;;139.52;86.25;;;5.60;90.90;;;;;;5033589;28;20415;-55
2021/01/20 07:06:42;;;;;;;139.60;86.20;;;5.50;91.00;;;;;;5036511;28;20033;-57
2021/01/20 07:09:11;;;;;;;144.57;88.07;;;5.60;91.30;;;;;;5027639;28;20032;-57
2021/01/20 07:11:55;;;;;;;134.13;84.17;;;5.50;90.70;;;;;;5045607;28;20036;-54
2021/01/20 07:14:28;;;;;;;134.50;84.80;;;5.60;90.30;;;;;;5022649;28;20092;-56
2021/01/20 07:16:55;;;;;;;142.17;89.07;;;5.50;91.00;;;;;;5053376;28;20043;-56
2021/01/20 07:19:28;;;;;;;145.17;88.87;;;5.50;90.90;;;;;;5046653;28;20045;-53
2021/01/20 07:21:54;;;;;;;144.63;88.77;;;5.40;90.60;;;;;;5047423;28;20037;-54
2021/01/20 07:24:20;;;;;;;138.60;87.80;;;5.40;91.00;;;;;;5033796;28;20584;-57
2021/01/20 07:26:47;;;;;;;144.13;90.20;;;5.50;90.50;;;;;;5049368;28;20150;-56
2021/01/20 07:29:14;;;;;;;140.60;88.83;;;5.50;90.90;;;;;;5036740;28;20051;-57
2021/01/20 07:31:44;;;;;;;153.53;86.80;;;5.40;90.50;;;;;;5038311;28;20476;-57
2021/01/20 07:34:10;;;;;;;137.20;88.53;;;5.50;90.50;;;;;;5056263;28;20045;-53
2021/01/20 07:36:36;;;;;;;144.77;89.33;;;5.60;90.50;;;;;;5042040;28;20049;-52
2021/01/20 07:39:02;;;;;;;146.23;88.67;;;5.60;90.50;;;;;;5035536;28;20053;-54
2021/01/20 07:41:29;;;;;;;140.93;89.43;;;5.60;90.20;;;;;;5037173;28;20056;-55
2021/01/20 07:44:06;;;;;;;146.13;87.37;;;5.60;90.10;;;;;;5042915;28;20158;-55
2021/01/20 07:46:32;;;;;;;145.33;86.70;;;5.60;90.30;;;;;;5045296;28;20099;-56
2021/01/20 07:49:12;;;;;;;143.60;87.90;;;5.60;90.40;;;;;;5037029;28;20136;-56
2021/01/20 07:51:38;;;;;;;140.50;87.97;;;5.60;90.20;;;;;;5040745;28;20041;-57
2021/01/20 07:54:05;;;;;;;145.87;90.53;;;5.60;90.30;;;;;;5046364;28;20044;-54
2021/01/20 07:56:32;;;;;;;150.23;94.00;;;5.60;90.60;;;;;;5039003;28;20041;-57
2021/01/20 07:59:18;;;;;;;151.50;94.80;;;5.70;90.70;;;;;;5050158;28;20540;-56
2021/01/20 08:01:44;;;;;;;153.40;91.70;;;5.70;90.60;;;;;;5012073;28;20123;-53
2021/01/20 08:04:23;;;;;;;146.83;91.33;;;5.60;90.90;;;;;;5041595;28;20052;-54
2021/01/20 08:06:49;;;;;;;142.40;86.80;;;5.70;90.20;;;;;;5038649;28;20045;-53
2021/01/20 08:09:15;;;;;;;141.10;88.03;;;5.70;90.20;;;;;;5044862;28;20052;-56
2021/01/20 08:11:43;;;;;;;140.80;89.53;;;5.80;90.40;;;;;;5055241;28;20136;-54
2021/01/20 08:14:11;;;;;;;150.87;95.03;;;5.80;90.30;;;;;;5020037;28;20041;-56
2021/01/20 08:16:38;;;;;;;140.50;87.87;;;5.80;90.70;;;;;;5040269;28;20052;-54
2021/01/20 08:19:05;;;;;;;156.23;95.03;;;5.80;90.30;;;;;;5040488;28;20057;-56
2021/01/20 08:21:32;;;;;;;141.80;87.37;;;5.90;90.70;;;;;;5041692;28;20044;-57
2021/01/20 08:24:05;;;;;;;148.63;91.50;;;5.90;90.50;;;;;;5058153;28;20045;-56
2021/01/20 08:26:32;;;;;;;146.73;93.93;;;5.90;90.50;;;;;;5035766;28;20033;-57
2021/01/20 08:29:11;;;;;;;147.73;93.03;;;5.90;90.70;;;;;;5042873;28;20509;-55
2021/01/20 08:31:39;;;;;;;144.77;92.63;;;5.90;90.40;;;;;;5034255;28;20037;-55
2021/01/20 08:34:20;;;;;;;153.00;94.43;;;5.90;90.20;;;;;;5043752;28;20037;-53
2021/01/20 08:37:04;;;;;;;144.93;95.97;;;5.80;90.40;;;;;;5005317;28;20052;-56
2021/01/20 08:39:32;;;;;;;150.43;93.90;;;5.90;89.90;;;;;;5041907;28;20069;-55
2021/01/20 08:42:13;;;;;;;139.87;90.60;;;5.80;90.20;;;;;;5035623;28;20045;-56
2021/01/20 08:44:39;;;;;;;147.33;97.70;;;5.90;90.20;;;;;;5043192;28;20046;-57
2021/01/20 08:47:04;;;;;;;154.50;98.30;;;5.80;90.10;;;;;;5046672;28;21701;-58
2021/01/20 08:49:30;;;;;;;144.20;91.03;;;5.90;90.10;;;;;;5046149;28;20038;-58
2021/01/20 08:51:57;;;;;;;140.63;92.20;;;5.90;90.00;;;;;;5045052;28;20450;-56
2021/01/20 08:54:24;;;;;;;138.67;91.40;;;5.90;89.90;;;;;;5032234;28;20041;-53
2021/01/20 08:56:50;;;;;;;151.23;96.57;;;5.90;89.80;;;;;;5040884;28;20041;-56
2021/01/20 08:59:15;;;;;;;145.20;94.63;;;5.90;90.30;;;;;;5039748;28;20064;-57
2021/01/20 09:01:41;;;;;;;147.73;94.93;;;5.90;90.10;;;;;;5034853;28;20490;-57
2021/01/20 09:04:06;;;;;;;146.83;93.77;;;5.90;89.90;;;;;;5032894;28;20037;-56
2021/01/20 09:06:33;;;;;;;148.27;94.77;;;5.90;89.40;;;;;;5048044;28;20127;-56
2021/01/20 09:08:59;;;;;;;150.23;97.17;;;5.90;89.90;;;;;;5041353;28;20037;-56
2021/01/20 09:11:25;;;;;;;148.33;94.07;;;5.80;90.30;;;;;;5049786;28;20491;-56
2021/01/20 09:13:54;;;;;;;136.10;89.50;;;5.80;90.20;;;;;;5029885;28;20113;-56
2021/01/20 09:16:26;;;;;;;144.47;91.10;;;5.80;89.70;;;;;;5036041;28;20136;-56
2021/01/20 09:18:52;;;;;;;154.60;96.23;;;5.90;89.80;;;;;;5040084;28;20048;-55
2021/01/20 09:21:18;;;;;;;135.97;87.37;;;5.90;90.20;;;;;;5030603;28;20195;-56
2021/01/20 09:23:43;;;;;;;139.20;90.43;;;5.80;89.60;;;;;;5046857;28;20052;-55
2021/01/20 09:26:09;;;;;;;141.90;93.13;;;5.80;89.40;;;;;;5052406;28;20044;-56
2021/01/20 09:28:36;;;;;;;131.80;89.47;;;5.70;89.40;;;;;;5044383;28;20047;-55
2021/01/20 09:31:01;;;;;;;135.80;89.30;;;5.70;89.10;;;;;;5044132;28;20470;-55
2021/01/20 09:33:27;;;;;;;142.53;94.80;;;5.70;89.60;;;;;;5036637;28;20049;-57
2021/01/20 09:35:52;;;;;;;143.90;93.40;;;5.60;89.90;;;;;;5039308;28;20068;-57
2021/01/20 09:38:19;;;;;;;137.47;92.53;;;5.70;89.80;;;;;;5042838;28;20053;-57
2021/01/20 09:40:45;;;;;;;143.97;92.93;;;5.70;90.00;;;;;;5031359;28;20120;-56
2021/01/20 09:43:11;;;;;;;132.50;89.50;;;5.80;89.60;;;;;;5046792;28;20438;-55
2021/01/20 09:45:36;;;;;;;133.73;88.93;;;5.70;88.90;;;;;;5036908;28;20492;-56
2021/01/20 09:48:03;;;;;;;143.83;93.23;;;5.80;89.10;;;;;;5037286;28;20399;-55
2021/01/20 09:50:38;;;;;;;139.73;94.77;;;5.90;89.50;;;;;;5034073;28;20394;-54
2021/01/20 09:53:05;;;;;;;129.93;88.43;;;6.00;89.10;;;;;;5043520;28;20068;-56
2021/01/20 09:55:31;;;;;;;134.60;91.77;;;5.80;88.00;;;;;;5044546;28;20483;-56
2021/01/20 09:57:57;;;;;;;133.77;89.00;;;5.90;88.40;;;;;;5042721;28;20049;-56
2021/01/20 10:00:23;;;;;;;128.90;89.63;;;5.90;88.20;;;;;;5041704;28;20036;-57
2021/01/20 10:02:49;;;;;;;132.67;87.40;;;6.00;87.50;;;;;;5042687;28;20037;-55
2021/01/20 10:05:15;;;;;;;127.27;89.30;;;6.00;87.50;;;;;;5030972;28;20432;-55
2021/01/20 10:07:41;;;;;;;138.43;90.60;;;5.90;87.20;;;;;;5038913;28;20505;-56
2021/01/20 10:10:13;;;;;;;136.33;91.30;;;5.90;87.90;;;;;;5038397;28;20454;-54
2021/01/20 10:12:39;;;;;;;134.60;91.90;;;6.10;87.90;;;;;;5037632;28;20513;-57
2021/01/20 10:15:07;;;;;;;134.50;90.40;;;6.10;87.80;;;;;;5037580;28;20036;-55
2021/01/20 10:17:32;;;;;;;139.93;92.07;;;6.00;87.80;;;;;;5040282;28;20069;-55
2021/01/20 10:19:58;;;;;;;132.90;89.47;;;6.00;87.70;;;;;;5024093;28;20065;-56
2021/01/20 10:22:24;;;;;;;134.87;88.23;;;6.10;87.30;;;;;;5036909;28;20033;-56
2021/01/20 10:24:50;;;;;;;133.87;89.70;;;6.10;86.50;;;;;;5034744;28;20507;-55
2021/01/20 10:27:16;;;;;;;134.70;91.63;;;6.00;85.90;;;;;;5013249;28;20122;-58
2021/01/20 10:29:41;;;;;;;133.33;90.20;;;6.00;87.00;;;;;;5063017;28;20387;-53
2021/01/20 10:32:07;;;;;;;140.20;90.73;;;6.10;86.30;;;;;;5035466;28;20486;-55
2021/01/20 10:34:33;;;;;;;133.23;88.67;;;6.10;87.00;;;;;;5041809;28;20086;-55
2021/01/20 10:36:59;;;;;;;129.07;88.70;;;6.10;86.50;;;;;;5033722;28;20079;-57
2021/01/20 10:39:25;;;;;;;147.67;93.50;;;6.10;85.90;;;;;;5045794;28;20506;-56
2021/01/20 10:41:53;;;;;;;137.00;94.83;;;6.20;86.70;;;;;;5037953;28;20083;-54
2021/01/20 10:44:19;;;;;;;139.40;91.50;;;6.20;86.90;;;;;;5038221;28;20056;-53
2021/01/20 10:46:47;;;;;;;133.33;91.47;;;6.20;86.30;;;;;;5033871;28;20040;-53
2021/01/20 10:49:13;;;;;;;137.13;91.00;;;6.20;86.30;;;;;;5047517;28;20045;-55
2021/01/20 10:51:39;;;;;;;145.77;94.23;;;6.30;87.00;;;;;;5039715;28;20041;-58
2021/01/20 10:54:06;;;;;;;140.27;92.63;;;6.40;86.20;;;;;;5054310;28;20390;-56
2021/01/20 10:56:32;;;;;;;133.97;90.30;;;6.40;86.70;;;;;;5046792;28;20033;-55
2021/01/20 10:58:58;;;;;;;145.40;96.40;;;6.30;87.30;;;;;;5033382;28;20050;-53
2021/01/20 11:01:24;;;;;;;151.60;100.27;;;6.30;88.10;;;;;;5035333;28;20109;-56
2021/01/20 11:03:49;;;;;;;150.63;98.93;;;6.20;88.50;;;;;;5030635;28;20064;-54
2021/01/20 11:06:15;;;;;;;136.50;93.93;;;6.10;89.10;;;;;;5041471;28;20037;-54
2021/01/20 11:08:41;;;;;;;139.57;91.97;;;6.00;88.60;;;;;;5035886;28;20487;-54
2021/01/20 11:11:07;;;;;;;136.00;92.40;;;6.00;88.40;;;;;;5041106;28;20044;-52
2021/01/20 11:13:33;;;;;;;142.53;97.50;;;6.10;88.80;;;;;;5036706;28;20059;-55
2021/01/20 11:15:59;;;;;;;131.33;90.90;;;6.20;90.00;;;;;;5044441;28;20043;-56
2021/01/20 11:18:27;;;;;;;148.03;98.97;;;6.20;88.30;;;;;;5041874;28;20049;-55
2021/01/20 11:20:53;;;;;;;144.27;97.63;;;6.20;90.20;;;;;;5047539;28;20032;-54
2021/01/20 11:23:19;;;;;;;139.17;94.77;;;6.20;90.10;;;;;;5042918;28;20029;-55
2021/01/20 11:25:47;;;;;;;139.73;94.20;;;6.20;89.60;;;;;;5049929;28;20045;-54
2021/01/20 11:28:13;;;;;;;140.90;95.13;;;6.30;89.80;;;;;;5034864;28;20071;-54
2021/01/20 11:30:39;;;;;;;138.97;93.50;;;6.40;89.30;;;;;;5050005;28;20474;-56
2021/01/20 11:33:06;;;;;;;152.27;99.23;;;6.40;89.10;;;;;;5033305;28;20095;-54
2021/01/20 11:35:31;;;;;;;140.00;94.63;;;6.20;89.40;;;;;;5040480;28;20037;-56
2021/01/20 11:37:57;;;;;;;144.47;96.73;;;6.20;89.30;;;;;;5043456;28;20517;-55
2021/01/20 11:40:27;;;;;;;140.93;95.53;;;6.20;89.40;;;;;;5033796;28;20161;-53
2021/01/20 11:43:00;;;;;;;148.17;99.57;;;6.30;89.30;;;;;;5047283;28;20540;-54
2021/01/20 11:45:25;;;;;;;143.10;96.07;;;6.20;89.90;;;;;;5030639;28;20232;-55
2021/01/20 11:47:51;;;;;;;144.87;94.30;;;6.20;89.20;;;;;;5057449;28;20044;-54
2021/01/20 11:50:17;;;;;;;150.60;98.17;;;6.30;89.20;;;;;;5045811;28;20110;-55
2021/01/20 11:52:42;;;;;;;143.63;96.17;;;6.30;89.80;;;;;;5040343;28;20053;-54
2021/01/20 11:55:08;;;;;;;142.90;94.37;;;6.10;89.10;;;;;;5038560;28;20044;-51
2021/01/20 11:57:34;;;;;;;146.03;94.90;;;6.20;89.50;;;;;;5048730;28;20521;-52
2021/01/20 12:00:00;;;;;;;149.70;97.23;;;6.30;89.20;;;;;;5039605;28;20040;-53
2021/01/20 12:02:25;;;;;;;145.53;97.97;;;6.20;89.60;;;;;;5044707;28;20068;-50
2021/01/20 12:04:51;;;;;;;149.10;99.43;;;6.20;89.70;;;;;;5048330;28;20040;-52
2021/01/20 12:07:16;;;;;;;141.63;95.03;;;6.20;90.00;;;;;;5041442;28;20060;-53
2021/01/20 12:09:42;;;;;;;142.43;96.53;;;6.20;89.70;;;;;;5033183;28;20493;-53
2021/01/20 12:12:08;;;;;;;147.10;97.93;;;6.20;89.60;;;;;;5047900;28;20479;-54
2021/01/20 12:14:37;;;;;;;143.47;96.63;;;6.30;89.50;;;;;;5062825;28;20058;-56
2021/01/20 12:17:03;;;;;;;146.30;97.37;;;6.30;89.10;;;;;;5046587;28;20132;-53
2021/01/20 12:19:29;;;;;;;147.03;98.47;;;6.30;89.60;;;;;;5057290;28;20183;-55
2021/01/20 12:21:55;;;;;;;147.97;98.87;;;6.50;89.60;;;;;;5045073;28;20458;-52
2021/01/20 12:24:21;;;;;;;150.90;99.67;;;6.50;89.40;;;;;;5041859;28;20542;-55
2021/01/20 12:26:47;;;;;;;153.57;102.67;;;6.40;89.30;;;;;;5043506;28;20605;-52
2021/01/20 12:29:12;;;;;;;146.87;99.43;;;6.60;90.10;;;;;;5045796;28;20036;-53
2021/01/20 12:31:38;;;;;;;145.83;98.73;;;6.60;89.70;;;;;;5036932;28;20053;-54